sensor_id;sensor_type;location;lat;lon;timestamp;pressure;altitude;pressure_sealevel;temperature;humidity
35878;BME280;21982;49.804;24.072;2024-02-26T00:01:16;96596.28;;;9.16;77.08
35878;BME280;21982;49.804;24.072;2024-02-26T00:03:41;96565.53;;;9.02;77.06
35878;BME280;21982;49.804;24.072;2024-02-26T00:06:10;96596.28;;;9.16;77.42
35878;BME280;21982;49.804;24.072;2024-02-26T00:08:38;96591.00;;;9.16;77.72
35878;BME280;21982;49.804;24.072;2024-02-26T00:11:05;96597.06;;;9.10;77.61
35878;BME280;21982;49.804;24.072;2024-02-26T00:13:31;96602.75;;;9.07;77.81
35878;BME280;21982;49.804;24.072;2024-02-26T00:15:56;96509.84;;;8.49;77.46
35878;BME280;21982;49.804;24.072;2024-02-26T00:18:22;96585.41;;;8.91;77.46
35878;BME280;21982;49.804;24.072;2024-02-26T00:20:47;96585.16;;;8.86;78.14
35878;BME280;21982;49.804;24.072;2024-02-26T00:23:15;96587.06;;;8.99;77.41
35878;BME280;21982;49.804;24.072;2024-02-26T00:25:40;96534.69;;;8.61;77.91
35878;BME280;21982;49.804;24.072;2024-02-26T00:28:08;96584.59;;;8.91;77.87
35878;BME280;21982;49.804;24.072;2024-02-26T00:30:34;96546.06;;;8.68;77.69
35878;BME280;21982;49.804;24.072;2024-02-26T00:33:01;96598.19;;;8.88;78.26
35878;BME280;21982;49.804;24.072;2024-02-26T00:35:29;96569.19;;;8.66;78.15
35878;BME280;21982;49.804;24.072;2024-02-26T00:37:55;96589.94;;;8.69;78.03
35878;BME280;21982;49.804;24.072;2024-02-26T00:40:24;96606.88;;;8.82;78.18
35878;BME280;21982;49.804;24.072;2024-02-26T00:42:49;96569.75;;;8.55;78.74
35878;BME280;21982;49.804;24.072;2024-02-26T00:45:15;96610.75;;;8.86;78.03
35878;BME280;21982;49.804;24.072;2024-02-26T00:47:41;96534.34;;;8.43;78.50
35878;BME280;21982;49.804;24.072;2024-02-26T00:50:08;96605.09;;;8.89;78.25
35878;BME280;21982;49.804;24.072;2024-02-26T00:52:34;96595.97;;;8.91;78.64
35878;BME280;21982;49.804;24.072;2024-02-26T00:55:00;96595.78;;;8.93;78.50
35878;BME280;21982;49.804;24.072;2024-02-26T00:57:25;96563.56;;;8.76;78.30
35878;BME280;21982;49.804;24.072;2024-02-26T00:59:51;96598.59;;;8.91;78.68
35878;BME280;21982;49.804;24.072;2024-02-26T01:02:16;96579.84;;;8.80;78.93
35878;BME280;21982;49.804;24.072;2024-02-26T01:04:42;96472.81;;;8.08;78.92
35878;BME280;21982;49.804;24.072;2024-02-26T01:07:07;96489.38;;;8.23;78.71
35878;BME280;21982;49.804;24.072;2024-02-26T01:09:33;96484.41;;;8.14;79.10
35878;BME280;21982;49.804;24.072;2024-02-26T01:11:58;96546.88;;;8.62;78.65
35878;BME280;21982;49.804;24.072;2024-02-26T01:14:24;96588.00;;;8.85;78.87
35878;BME280;21982;49.804;24.072;2024-02-26T01:16:49;96565.34;;;8.62;78.53
35878;BME280;21982;49.804;24.072;2024-02-26T01:19:14;96597.31;;;8.81;79.14
35878;BME280;21982;49.804;24.072;2024-02-26T01:21:40;96492.19;;;8.22;79.14
35878;BME280;21982;49.804;24.072;2024-02-26T01:24:06;96551.75;;;8.65;78.58
35878;BME280;21982;49.804;24.072;2024-02-26T01:26:32;96601.81;;;8.87;78.62
35878;BME280;21982;49.804;24.072;2024-02-26T01:28:57;96584.34;;;8.86;79.23
35878;BME280;21982;49.804;24.072;2024-02-26T01:31:23;96547.25;;;8.59;79.00
35878;BME280;21982;49.804;24.072;2024-02-26T01:33:48;96563.97;;;8.73;79.41
35878;BME280;21982;49.804;24.072;2024-02-26T01:36:13;96594.91;;;8.86;79.58
35878;BME280;21982;49.804;24.072;2024-02-26T01:38:39;96485.66;;;8.18;79.25
35878;BME280;21982;49.804;24.072;2024-02-26T01:41:04;96499.19;;;8.36;79.14
35878;BME280;21982;49.804;24.072;2024-02-26T01:43:29;96590.91;;;8.96;78.90
35878;BME280;21982;49.804;24.072;2024-02-26T01:45:55;96606.38;;;8.99;79.16
35878;BME280;21982;49.804;24.072;2024-02-26T01:48:20;96609.59;;;9.01;79.13
35878;BME280;21982;49.804;24.072;2024-02-26T01:50:46;96561.59;;;8.85;79.33
35878;BME280;21982;49.804;24.072;2024-02-26T01:53:12;96599.72;;;9.10;79.55
35878;BME280;21982;49.804;24.072;2024-02-26T01:55:37;96599.13;;;9.15;79.39
35878;BME280;21982;49.804;24.072;2024-02-26T01:58:04;96577.53;;;9.04;79.15
35878;BME280;21982;49.804;24.072;2024-02-26T02:00:30;96595.28;;;9.17;79.30
35878;BME280;21982;49.804;24.072;2024-02-26T02:02:56;96594.66;;;9.15;79.07
35878;BME280;21982;49.804;24.072;2024-02-26T02:05:22;96345.78;;;7.63;79.04
35878;BME280;21982;49.804;24.072;2024-02-26T02:07:48;96605.84;;;9.17;79.50
35878;BME280;21982;49.804;24.072;2024-02-26T02:10:15;96593.66;;;9.16;79.02
35878;BME280;21982;49.804;24.072;2024-02-26T02:12:40;96600.16;;;9.20;79.51
35878;BME280;21982;49.804;24.072;2024-02-26T02:15:06;96541.88;;;8.81;79.64
35878;BME280;21982;49.804;24.072;2024-02-26T02:17:32;96519.28;;;8.65;79.11
35878;BME280;21982;49.804;24.072;2024-02-26T02:19:57;96550.47;;;8.89;79.50
35878;BME280;21982;49.804;24.072;2024-02-26T02:22:23;96552.72;;;8.92;79.61
35878;BME280;21982;49.804;24.072;2024-02-26T02:24:49;96562.50;;;9.05;79.15
35878;BME280;21982;49.804;24.072;2024-02-26T02:27:15;96494.81;;;8.50;79.19
35878;BME280;21982;49.804;24.072;2024-02-26T02:29:41;96555.97;;;8.94;79.36
35878;BME280;21982;49.804;24.072;2024-02-26T02:32:07;96500.56;;;8.60;79.73
35878;BME280;21982;49.804;24.072;2024-02-26T02:34:33;96580.81;;;9.13;79.69
35878;BME280;21982;49.804;24.072;2024-02-26T02:36:59;96605.25;;;9.22;79.24
35878;BME280;21982;49.804;24.072;2024-02-26T02:39:24;96590.19;;;9.16;79.49
35878;BME280;21982;49.804;24.072;2024-02-26T02:41:50;96539.44;;;8.79;79.33
35878;BME280;21982;49.804;24.072;2024-02-26T02:44:15;96537.84;;;8.85;78.95
35878;BME280;21982;49.804;24.072;2024-02-26T02:46:41;96529.25;;;8.76;79.63
35878;BME280;21982;49.804;24.072;2024-02-26T02:49:10;96609.38;;;9.31;79.79
35878;BME280;21982;49.804;24.072;2024-02-26T02:54:11;96605.06;;;9.23;79.52
35878;BME280;21982;49.804;24.072;2024-02-26T02:56:36;96588.28;;;9.03;79.64
35878;BME280;21982;49.804;24.072;2024-02-26T02:59:02;96613.81;;;9.24;79.52
35878;BME280;21982;49.804;24.072;2024-02-26T03:01:28;96447.97;;;8.24;79.71
35878;BME280;21982;49.804;24.072;2024-02-26T03:03:53;96617.47;;;9.23;80.08
35878;BME280;21982;49.804;24.072;2024-02-26T03:06:19;96617.88;;;9.26;79.46
35878;BME280;21982;49.804;24.072;2024-02-26T03:08:46;96614.22;;;9.27;79.82
35878;BME280;21982;49.804;24.072;2024-02-26T03:11:15;96598.34;;;9.21;79.54
35878;BME280;21982;49.804;24.072;2024-02-26T03:13:41;96472.81;;;8.36;79.59
35878;BME280;21982;49.804;24.072;2024-02-26T03:16:06;96498.38;;;8.35;79.74
35878;BME280;21982;49.804;24.072;2024-02-26T03:18:32;96587.91;;;8.99;79.89
35878;BME280;21982;49.804;24.072;2024-02-26T03:20:57;96628.38;;;9.13;79.80
35878;BME280;21982;49.804;24.072;2024-02-26T03:23:23;96497.13;;;8.31;79.86
35878;BME280;21982;49.804;24.072;2024-02-26T03:25:48;96596.59;;;8.93;79.55
35878;BME280;21982;49.804;24.072;2024-02-26T03:31:07;96189.56;;;6.38;78.80
35878;BME280;21982;49.804;24.072;2024-02-26T03:33:59;96259.72;;;6.80;79.52
35878;BME280;21982;49.804;24.072;2024-02-26T03:36:24;96508.31;;;8.33;79.95
35878;BME280;21982;49.804;24.072;2024-02-26T03:38:50;96634.19;;;9.02;79.52
35878;BME280;21982;49.804;24.072;2024-02-26T03:41:16;96608.00;;;9.00;79.50
35878;BME280;21982;49.804;24.072;2024-02-26T03:43:41;96507.31;;;8.34;79.69
35878;BME280;21982;49.804;24.072;2024-02-26T03:46:07;96328.00;;;7.10;80.10
35878;BME280;21982;49.804;24.072;2024-02-26T03:48:33;96536.03;;;8.51;79.97
35878;BME280;21982;49.804;24.072;2024-02-26T03:50:59;96577.59;;;8.77;79.86
35878;BME280;21982;49.804;24.072;2024-02-26T03:53:25;96444.94;;;7.92;79.79
35878;BME280;21982;49.804;24.072;2024-02-26T03:55:51;96562.53;;;8.70;80.24
35878;BME280;21982;49.804;24.072;2024-02-26T03:58:17;96599.03;;;8.95;79.63
35878;BME280;21982;49.804;24.072;2024-02-26T04:00:43;96601.88;;;8.93;80.36
35878;BME280;21982;49.804;24.072;2024-02-26T04:03:09;96583.72;;;8.84;79.71
35878;BME280;21982;49.804;24.072;2024-02-26T04:05:35;96495.44;;;8.24;79.76
35878;BME280;21982;49.804;24.072;2024-02-26T04:08:00;96559.88;;;8.70;79.97
35878;BME280;21982;49.804;24.072;2024-02-26T04:10:25;96574.94;;;8.77;80.03
35878;BME280;21982;49.804;24.072;2024-02-26T04:12:51;96531.31;;;8.46;80.10
35878;BME280;21982;49.804;24.072;2024-02-26T04:15:16;96619.59;;;9.06;79.66
35878;BME280;21982;49.804;24.072;2024-02-26T04:17:42;96593.66;;;8.82;80.28
35878;BME280;21982;49.804;24.072;2024-02-26T04:20:12;96630.38;;;9.11;80.16
35878;BME280;21982;49.804;24.072;2024-02-26T04:22:37;96623.25;;;9.05;80.35
35878;BME280;21982;49.804;24.072;2024-02-26T04:25:03;96573.31;;;8.76;79.91
35878;BME280;21982;49.804;24.072;2024-02-26T04:27:29;96636.28;;;9.13;79.87
35878;BME280;21982;49.804;24.072;2024-02-26T04:29:54;96628.38;;;9.13;79.97
35878;BME280;21982;49.804;24.072;2024-02-26T04:32:19;96608.41;;;8.97;80.53
35878;BME280;21982;49.804;24.072;2024-02-26T04:34:45;96629.19;;;9.14;80.01
35878;BME280;21982;49.804;24.072;2024-02-26T04:37:11;96633.84;;;9.12;80.30
35878;BME280;21982;49.804;24.072;2024-02-26T04:39:36;96491.75;;;8.18;80.31
35878;BME280;21982;49.804;24.072;2024-02-26T04:42:02;96626.69;;;9.05;80.28
35878;BME280;21982;49.804;24.072;2024-02-26T04:44:29;96584.69;;;8.76;80.19
35878;BME280;21982;49.804;24.072;2024-02-26T04:46:54;96596.34;;;8.88;80.14
35878;BME280;21982;49.804;24.072;2024-02-26T04:49:20;96560.59;;;8.51;80.18
35878;BME280;21982;49.804;24.072;2024-02-26T04:51:45;96569.66;;;8.77;80.16
35878;BME280;21982;49.804;24.072;2024-02-26T04:54:13;96636.06;;;9.08;80.32
35878;BME280;21982;49.804;24.072;2024-02-26T04:56:38;96606.72;;;8.90;80.35
35878;BME280;21982;49.804;24.072;2024-02-26T04:59:03;96624.69;;;9.07;80.10
35878;BME280;21982;49.804;24.072;2024-02-26T05:01:29;96617.38;;;9.10;80.13
35878;BME280;21982;49.804;24.072;2024-02-26T05:03:54;96637.31;;;9.12;80.32
35878;BME280;21982;49.804;24.072;2024-02-26T05:06:20;96577.25;;;8.86;80.08
35878;BME280;21982;49.804;24.072;2024-02-26T05:08:45;96469.84;;;8.18;80.02
35878;BME280;21982;49.804;24.072;2024-02-26T05:11:11;96631.25;;;9.18;80.60
35878;BME280;21982;49.804;24.072;2024-02-26T05:13:36;96639.78;;;9.20;80.49
35878;BME280;21982;49.804;24.072;2024-02-26T05:16:02;96646.50;;;9.23;80.03
35878;BME280;21982;49.804;24.072;2024-02-26T05:18:28;96543.84;;;8.65;80.05
35878;BME280;21982;49.804;24.072;2024-02-26T05:20:53;96650.22;;;9.28;80.33
35878;BME280;21982;49.804;24.072;2024-02-26T05:23:19;96622.31;;;9.19;80.05
35878;BME280;21982;49.804;24.072;2024-02-26T05:25:44;96618.81;;;9.12;80.42
35878;BME280;21982;49.804;24.072;2024-02-26T05:28:12;96632.88;;;9.19;80.32
35878;BME280;21982;49.804;24.072;2024-02-26T05:30:37;96655.50;;;9.28;80.17
35878;BME280;21982;49.804;24.072;2024-02-26T05:33:05;96655.09;;;9.31;80.04
35878;BME280;21982;49.804;24.072;2024-02-26T05:35:30;96652.47;;;9.31;80.03
35878;BME280;21982;49.804;24.072;2024-02-26T05:37:56;96653.28;;;9.32;80.44
35878;BME280;21982;49.804;24.072;2024-02-26T05:40:21;96588.72;;;9.00;80.05
35878;BME280;21982;49.804;24.072;2024-02-26T05:42:47;96630.09;;;9.27;80.37
35878;BME280;21982;49.804;24.072;2024-02-26T05:45:14;96650.44;;;9.40;80.30
35878;BME280;21982;49.804;24.072;2024-02-26T05:47:39;96489.78;;;8.27;80.13
35878;BME280;21982;49.804;24.072;2024-02-26T05:50:09;96634.97;;;9.30;80.02
35878;BME280;21982;49.804;24.072;2024-02-26T05:52:37;96612.38;;;9.21;79.70
35878;BME280;21982;49.804;24.072;2024-02-26T05:55:06;96666.34;;;9.47;80.26
35878;BME280;21982;49.804;24.072;2024-02-26T05:57:33;96597.25;;;9.08;79.96
35878;BME280;21982;49.804;24.072;2024-02-26T05:59:59;96669.41;;;9.50;79.71
35878;BME280;21982;49.804;24.072;2024-02-26T06:02:31;96670.84;;;9.53;80.34
35878;BME280;21982;49.804;24.072;2024-02-26T06:04:57;96666.38;;;9.53;79.73
35878;BME280;21982;49.804;24.072;2024-02-26T06:07:25;96668.63;;;9.56;79.85
35878;BME280;21982;49.804;24.072;2024-02-26T06:09:51;96645.97;;;9.34;80.16
35878;BME280;21982;49.804;24.072;2024-02-26T06:12:19;96613.38;;;9.20;79.87
35878;BME280;21982;49.804;24.072;2024-02-26T06:14:45;96589.91;;;9.04;79.84
35878;BME280;21982;49.804;24.072;2024-02-26T06:17:10;96670.88;;;9.59;79.98
35878;BME280;21982;49.804;24.072;2024-02-26T06:19:38;96596.28;;;9.16;79.79
35878;BME280;21982;49.804;24.072;2024-02-26T06:22:03;96648.09;;;9.58;79.88
35878;BME280;21982;49.804;24.072;2024-02-26T06:24:29;96660.53;;;9.71;79.83
35878;BME280;21982;49.804;24.072;2024-02-26T06:26:54;96691.56;;;10.03;79.59
35878;BME280;21982;49.804;24.072;2024-02-26T06:29:20;96621.28;;;9.74;79.21
35878;BME280;21982;49.804;24.072;2024-02-26T06:31:45;96508.72;;;9.19;79.03
35878;BME280;21982;49.804;24.072;2024-02-26T06:34:10;96695.94;;;10.44;78.87
35878;BME280;21982;49.804;24.072;2024-02-26T06:36:36;96502.88;;;9.30;78.65
35878;BME280;21982;49.804;24.072;2024-02-26T06:39:02;96703.28;;;10.55;78.38
35878;BME280;21982;49.804;24.072;2024-02-26T06:41:29;96709.81;;;10.59;78.37
35878;BME280;21982;49.804;24.072;2024-02-26T06:43:55;96662.16;;;10.39;77.99
35878;BME280;21982;49.804;24.072;2024-02-26T06:46:20;96698.22;;;10.60;77.98
35878;BME280;21982;49.804;24.072;2024-02-26T06:48:48;96596.34;;;10.03;77.75
35878;BME280;21982;49.804;24.072;2024-02-26T06:51:13;96621.38;;;10.14;77.72
35878;BME280;21982;49.804;24.072;2024-02-26T06:53:39;96702.09;;;10.64;77.50
35878;BME280;21982;49.804;24.072;2024-02-26T06:56:04;96694.34;;;10.63;77.49
35878;BME280;21982;49.804;24.072;2024-02-26T06:58:30;96693.13;;;10.65;77.16
35878;BME280;21982;49.804;24.072;2024-02-26T07:00:55;96618.13;;;10.12;77.25
35878;BME280;21982;49.804;24.072;2024-02-26T07:03:20;96623.00;;;10.15;76.96
35878;BME280;21982;49.804;24.072;2024-02-26T07:05:48;96674.97;;;10.49;76.77
35878;BME280;21982;49.804;24.072;2024-02-26T07:08:13;96709.41;;;10.75;77.10
35878;BME280;21982;49.804;24.072;2024-02-26T07:10:39;96710.63;;;10.80;76.62
35878;BME280;21982;49.804;24.072;2024-02-26T07:13:04;96675.19;;;10.61;76.42
35878;BME280;21982;49.804;24.072;2024-02-26T07:15:38;96716.13;;;10.85;76.16
35878;BME280;21982;49.804;24.072;2024-02-26T07:18:04;96715.53;;;10.83;76.46
35878;BME280;21982;49.804;24.072;2024-02-26T07:20:35;96602.03;;;10.14;76.09
35878;BME280;21982;49.804;24.072;2024-02-26T07:23:09;96486.63;;;9.47;76.16
35878;BME280;21982;49.804;24.072;2024-02-26T07:25:35;96675.22;;;10.74;76.04
35878;BME280;21982;49.804;24.072;2024-02-26T07:28:03;96714.31;;;10.98;75.68
35878;BME280;21982;49.804;24.072;2024-02-26T07:30:28;96669.09;;;10.60;75.51
35878;BME280;21982;49.804;24.072;2024-02-26T07:32:57;96727.31;;;11.13;75.51
35878;BME280;21982;49.804;24.072;2024-02-26T07:35:22;96728.94;;;11.27;75.20
35878;BME280;21982;49.804;24.072;2024-02-26T07:37:50;96641.38;;;10.76;74.77
35878;BME280;21982;49.804;24.072;2024-02-26T07:40:16;96725.06;;;11.30;74.48
35878;BME280;21982;49.804;24.072;2024-02-26T07:42:41;96733.44;;;11.33;74.69
35878;BME280;21982;49.804;24.072;2024-02-26T07:45:07;96735.66;;;11.36;74.42
35878;BME280;21982;49.804;24.072;2024-02-26T07:47:33;96729.75;;;11.34;74.25
35878;BME280;21982;49.804;24.072;2024-02-26T07:50:01;96724.47;;;11.34;73.95
35878;BME280;21982;49.804;24.072;2024-02-26T07:52:26;96619.19;;;10.70;73.94
35878;BME280;21982;49.804;24.072;2024-02-26T07:54:53;96726.09;;;11.35;73.95
35878;BME280;21982;49.804;24.072;2024-02-26T07:57:18;96687.78;;;11.18;73.96
35878;BME280;21982;49.804;24.072;2024-02-26T07:59:43;96641.34;;;10.89;73.94
35878;BME280;21982;49.804;24.072;2024-02-26T08:02:10;96694.28;;;11.35;73.65
35878;BME280;21982;49.804;24.072;2024-02-26T08:04:35;96616.69;;;10.95;73.25
35878;BME280;21982;49.804;24.072;2024-02-26T08:07:01;96723.97;;;11.77;73.32
35878;BME280;21982;49.804;24.072;2024-02-26T08:09:26;96723.50;;;11.87;73.01
35878;BME280;21982;49.804;24.072;2024-02-26T08:11:52;96662.19;;;11.57;72.64
35878;BME280;21982;49.804;24.072;2024-02-26T08:14:17;96725.50;;;11.98;72.40
35878;BME280;21982;49.804;24.072;2024-02-26T08:16:42;96670.09;;;11.70;72.73
35878;BME280;21982;49.804;24.072;2024-02-26T08:19:08;96735.56;;;12.27;72.48
35878;BME280;21982;49.804;24.072;2024-02-26T08:21:35;96673.56;;;12.15;71.65
35878;BME280;21982;49.804;24.072;2024-02-26T08:24:02;96686.31;;;12.38;71.29
35878;BME280;21982;49.804;24.072;2024-02-26T08:26:28;96581.22;;;11.54;70.67
35878;BME280;21982;49.804;24.072;2024-02-26T08:28:53;96734.69;;;12.40;70.74
35878;BME280;21982;49.804;24.072;2024-02-26T08:31:20;96726.94;;;12.38;70.95
35878;BME280;21982;49.804;24.072;2024-02-26T08:33:46;96660.69;;;11.81;70.73
35878;BME280;21982;49.804;24.072;2024-02-26T08:36:11;96728.81;;;12.31;70.65
35878;BME280;21982;49.804;24.072;2024-02-26T08:38:37;96715.94;;;12.35;71.07
35878;BME280;21982;49.804;24.072;2024-02-26T08:41:02;96734.13;;;12.63;70.70
35878;BME280;21982;49.804;24.072;2024-02-26T08:43:28;96646.53;;;12.31;70.09
35878;BME280;21982;49.804;24.072;2024-02-26T08:45:54;96728.91;;;13.06;70.31
35878;BME280;21982;49.804;24.072;2024-02-26T08:48:19;96669.06;;;12.79;69.45
35878;BME280;21982;49.804;24.072;2024-02-26T08:50:45;96719.16;;;13.00;68.94
35878;BME280;21982;49.804;24.072;2024-02-26T08:53:10;96737.69;;;13.06;69.15
35878;BME280;21982;49.804;24.072;2024-02-26T08:55:37;96677.66;;;12.74;68.79
35878;BME280;21982;49.804;24.072;2024-02-26T08:58:02;96727.78;;;13.20;69.10
35878;BME280;21982;49.804;24.072;2024-02-26T09:00:28;96738.31;;;13.33;68.71
35878;BME280;21982;49.804;24.072;2024-02-26T09:02:53;96716.97;;;13.15;68.30
35878;BME280;21982;49.804;24.072;2024-02-26T09:05:20;96709.09;;;13.02;67.70
35878;BME280;21982;49.804;24.072;2024-02-26T09:07:45;96737.53;;;13.01;68.08
35878;BME280;21982;49.804;24.072;2024-02-26T09:10:11;96726.94;;;12.95;68.47
35878;BME280;21982;49.804;24.072;2024-02-26T09:12:37;96733.03;;;13.02;68.40
35878;BME280;21982;49.804;24.072;2024-02-26T09:15:03;96737.66;;;13.13;68.38
35878;BME280;21982;49.804;24.072;2024-02-26T09:17:29;96702.00;;;12.96;67.99
35878;BME280;21982;49.804;24.072;2024-02-26T09:19:54;96689.75;;;12.95;67.90
35878;BME280;21982;49.804;24.072;2024-02-26T09:22:20;96743.47;;;13.28;67.27
35878;BME280;21982;49.804;24.072;2024-02-26T09:24:45;96741.34;;;13.37;67.42
35878;BME280;21982;49.804;24.072;2024-02-26T09:27:11;96683.88;;;13.11;67.04
35878;BME280;21982;49.804;24.072;2024-02-26T09:29:36;96713.13;;;13.36;66.64
35878;BME280;21982;49.804;24.072;2024-02-26T09:32:02;96748.69;;;13.60;66.62
35878;BME280;21982;49.804;24.072;2024-02-26T09:34:27;96662.63;;;13.11;66.18
35878;BME280;21982;49.804;24.072;2024-02-26T09:36:53;96676.44;;;13.20;66.36
35878;BME280;21982;49.804;24.072;2024-02-26T09:39:19;96719.84;;;13.57;66.02
35878;BME280;21982;49.804;24.072;2024-02-26T09:41:53;96742.41;;;13.91;65.59
35878;BME280;21982;49.804;24.072;2024-02-26T09:44:19;96648.41;;;13.42;65.44
35878;BME280;21982;49.804;24.072;2024-02-26T09:46:48;96749.13;;;14.12;65.44
35878;BME280;21982;49.804;24.072;2024-02-26T09:49:17;96689.59;;;13.88;65.33
35878;BME280;21982;49.804;24.072;2024-02-26T09:51:49;96740.66;;;14.33;64.98
35878;BME280;21982;49.804;24.072;2024-02-26T09:54:16;96701.19;;;14.12;64.86
35878;BME280;21982;49.804;24.072;2024-02-26T09:56:42;96727.91;;;14.53;64.58
35878;BME280;21982;49.804;24.072;2024-02-26T09:59:13;96688.72;;;14.42;63.88
35878;BME280;21982;49.804;24.072;2024-02-26T10:01:42;96715.13;;;14.85;63.52
35878;BME280;21982;49.804;24.072;2024-02-26T10:04:08;96652.06;;;14.67;62.90
35878;BME280;21982;49.804;24.072;2024-02-26T10:06:36;96657.28;;;14.97;62.44
35878;BME280;21982;49.804;24.072;2024-02-26T10:09:02;96728.97;;;15.52;61.89
35878;BME280;21982;49.804;24.072;2024-02-26T10:11:31;96707.75;;;15.34;61.79
35878;BME280;21982;49.804;24.072;2024-02-26T10:13:57;96740.13;;;15.72;61.25
35878;BME280;21982;49.804;24.072;2024-02-26T10:16:22;96701.94;;;15.49;61.41
35878;BME280;21982;49.804;24.072;2024-02-26T10:18:49;96700.41;;;15.76;61.17
35878;BME280;21982;49.804;24.072;2024-02-26T10:21:21;96736.00;;;16.33;60.64
35878;BME280;21982;49.804;24.072;2024-02-26T10:23:47;96733.28;;;16.45;59.96
35878;BME280;21982;49.804;24.072;2024-02-26T10:26:14;96735.06;;;16.68;59.78
35878;BME280;21982;49.804;24.072;2024-02-26T10:28:41;96694.25;;;16.72;59.31
35878;BME280;21982;49.804;24.072;2024-02-26T10:31:07;96740.88;;;17.99;58.79
35878;BME280;21982;49.804;24.072;2024-02-26T10:33:34;96734.16;;;18.94;56.83
35878;BME280;21982;49.804;24.072;2024-02-26T10:36:02;96698.88;;;19.49;54.63
35878;BME280;21982;49.804;24.072;2024-02-26T10:38:28;96612.09;;;19.96;53.25
35878;BME280;21982;49.804;24.072;2024-02-26T10:40:54;96677.09;;;21.42;51.31
35878;BME280;21982;49.804;24.072;2024-02-26T10:43:20;96696.81;;;22.66;49.96
35878;BME280;21982;49.804;24.072;2024-02-26T10:45:45;96738.94;;;23.74;47.96
35878;BME280;21982;49.804;24.072;2024-02-26T10:48:14;96719.78;;;23.94;45.42
35878;BME280;21982;49.804;24.072;2024-02-26T10:50:40;96741.50;;;23.89;45.21
35878;BME280;21982;49.804;24.072;2024-02-26T10:53:13;96720.56;;;24.24;45.31
35878;BME280;21982;49.804;24.072;2024-02-26T10:55:42;96732.63;;;24.93;43.96
35878;BME280;21982;49.804;24.072;2024-02-26T10:58:09;96736.88;;;25.50;42.97
35878;BME280;21982;49.804;24.072;2024-02-26T11:00:38;96680.50;;;25.66;42.18
35878;BME280;21982;49.804;24.072;2024-02-26T11:03:04;96650.78;;;25.88;41.70
35878;BME280;21982;49.804;24.072;2024-02-26T11:05:31;96722.13;;;26.57;41.02
35878;BME280;21982;49.804;24.072;2024-02-26T11:08:00;96713.66;;;26.95;39.90
35878;BME280;21982;49.804;24.072;2024-02-26T11:10:27;96669.84;;;27.10;39.14
35878;BME280;21982;49.804;24.072;2024-02-26T11:12:56;96692.19;;;27.52;38.35
35878;BME280;21982;49.804;24.072;2024-02-26T11:15:24;96710.25;;;27.70;37.52
35878;BME280;21982;49.804;24.072;2024-02-26T11:17:52;96721.56;;;27.19;37.73
35878;BME280;21982;49.804;24.072;2024-02-26T11:20:19;96654.22;;;25.94;38.13
35878;BME280;21982;49.804;24.072;2024-02-26T11:22:45;96713.38;;;25.46;38.93
35878;BME280;21982;49.804;24.072;2024-02-26T11:25:11;96712.56;;;24.56;39.64
35878;BME280;21982;49.804;24.072;2024-02-26T11:27:44;96708.78;;;23.62;40.23
35878;BME280;21982;49.804;24.072;2024-02-26T11:30:12;96704.63;;;22.67;41.55
35878;BME280;21982;49.804;24.072;2024-02-26T11:32:38;96708.19;;;21.98;42.58
35878;BME280;21982;49.804;24.072;2024-02-26T11:35:07;96632.13;;;20.96;43.55
35878;BME280;21982;49.804;24.072;2024-02-26T11:37:35;96691.88;;;20.73;44.06
35878;BME280;21982;49.804;24.072;2024-02-26T11:40:01;96674.59;;;20.38;44.72
35878;BME280;21982;49.804;24.072;2024-02-26T11:42:27;96635.41;;;19.80;44.75
35878;BME280;21982;49.804;24.072;2024-02-26T11:44:55;96652.00;;;19.67;45.07
35878;BME280;21982;49.804;24.072;2024-02-26T11:47:27;96714.38;;;19.79;45.11
35878;BME280;21982;49.804;24.072;2024-02-26T11:49:52;96682.00;;;19.54;45.63
35878;BME280;21982;49.804;24.072;2024-02-26T11:52:17;96654.50;;;19.36;45.46
35878;BME280;21982;49.804;24.072;2024-02-26T11:54:44;96705.22;;;19.70;45.44
35878;BME280;21982;49.804;24.072;2024-02-26T12:00:13;96668.34;;;20.28;44.96
35878;BME280;21982;49.804;24.072;2024-02-26T12:02:46;96664.69;;;20.69;44.44
35878;BME280;21982;49.804;24.072;2024-02-26T12:05:17;96663.38;;;21.28;43.84
35878;BME280;21982;49.804;24.072;2024-02-26T12:07:52;96657.50;;;22.00;42.96
35878;BME280;21982;49.804;24.072;2024-02-26T12:13:07;96712.19;;;23.96;41.01
35878;BME280;21982;49.804;24.072;2024-02-26T12:15:56;96605.03;;;23.82;39.96
35878;BME280;21982;49.804;24.072;2024-02-26T12:18:23;96697.63;;;24.40;39.32
35878;BME280;21982;49.804;24.072;2024-02-26T12:21:03;96709.31;;;24.35;39.09
35878;BME280;21982;49.804;24.072;2024-02-26T12:23:29;96663.25;;;23.45;39.14
35878;BME280;21982;49.804;24.072;2024-02-26T12:26:01;96704.75;;;23.59;39.53
35878;BME280;21982;49.804;24.072;2024-02-26T12:28:30;96681.19;;;24.13;39.44
35878;BME280;21982;49.804;24.072;2024-02-26T12:30:56;96674.38;;;24.77;38.38
35878;BME280;21982;49.804;24.072;2024-02-26T12:33:24;96690.69;;;25.42;38.05
35878;BME280;21982;49.804;24.072;2024-02-26T12:35:52;96695.56;;;25.72;37.32
35878;BME280;21982;49.804;24.072;2024-02-26T12:38:17;96684.75;;;26.27;36.89
35878;BME280;21982;49.804;24.072;2024-02-26T12:40:44;96691.22;;;26.67;36.46
35878;BME280;21982;49.804;24.072;2024-02-26T12:43:10;96695.88;;;26.89;36.00
35878;BME280;21982;49.804;24.072;2024-02-26T12:45:40;96674.03;;;26.94;35.73
35878;BME280;21982;49.804;24.072;2024-02-26T12:48:06;96698.81;;;27.15;35.26
35878;BME280;21982;49.804;24.072;2024-02-26T12:50:32;96680.53;;;27.07;35.09
35878;BME280;21982;49.804;24.072;2024-02-26T12:52:58;96701.41;;;27.20;35.09
35878;BME280;21982;49.804;24.072;2024-02-26T12:55:24;96708.09;;;27.36;35.13
35878;BME280;21982;49.804;24.072;2024-02-26T12:57:51;96694.09;;;27.51;34.26
35878;BME280;21982;49.804;24.072;2024-02-26T13:00:21;96676.25;;;27.59;34.26
35878;BME280;21982;49.804;24.072;2024-02-26T13:02:48;96640.50;;;27.52;33.43